createdAt,value
2022-12-08T00:02:20.803Z,15.05
2022-12-08T00:07:40.864Z,14.15
2022-12-08T00:12:42.454Z,16.50
2022-12-08T00:17:44.054Z,18.70
2022-12-08T00:22:45.594Z,18.83
2022-12-08T00:27:47.121Z,18.88
2022-12-08T00:32:48.677Z,16.55
2022-12-08T00:37:50.267Z,17.95
2022-12-08T00:42:51.822Z,18.30
2022-12-08T00:47:53.370Z,15.32
2022-12-08T00:52:54.944Z,13.07
2022-12-08T00:57:56.524Z,13.10
2022-12-08T01:02:58.117Z,15.38
2022-12-08T01:07:59.758Z,19.80
2022-12-08T01:13:01.344Z,19.35
2022-12-08T01:18:02.983Z,15.13
2022-12-08T01:23:04.677Z,13.77
2022-12-08T01:28:06.254Z,12.35
2022-12-08T01:33:07.816Z,11.80
2022-12-08T01:38:09.374Z,13.00
2022-12-08T01:43:19.627Z,13.82
2022-12-08T01:48:25.994Z,16.63
2022-12-08T01:53:32.919Z,19.35
2022-12-08T01:58:43.592Z,14.18
2022-12-08T02:04:00.842Z,14.20
2022-12-08T02:09:05.439Z,13.40
2022-12-08T02:14:09.588Z,15.95
2022-12-08T02:19:44.886Z,14.00
2022-12-08T02:25:10.318Z,14.43
2022-12-08T02:30:26.226Z,17.92
2022-12-08T02:35:47.982Z,14.00
2022-12-08T02:40:55.518Z,14.90
2022-12-08T02:46:01.883Z,16.95
2022-12-08T02:51:03.561Z,20.08
2022-12-08T02:56:26.800Z,17.88
2022-12-08T03:01:35.739Z,17.65
2022-12-08T03:06:50.986Z,17.70
2022-12-08T03:12:06.231Z,18.58
2022-12-08T03:17:08.744Z,16.80
2022-12-08T03:22:13.308Z,16.90
2022-12-08T03:27:26.933Z,16.73
2022-12-08T03:32:47.969Z,14.95
2022-12-08T03:37:49.568Z,11.90
2022-12-08T03:42:51.132Z,12.40
2022-12-08T03:47:52.824Z,10.43
2022-12-08T03:52:54.417Z,11.75
2022-12-08T03:57:56.006Z,10.38
2022-12-08T04:02:57.635Z,10.63
2022-12-08T04:07:59.345Z,11.50
2022-12-08T04:13:00.934Z,12.68
2022-12-08T04:18:02.482Z,10.98
2022-12-08T04:23:04.035Z,13.20
2022-12-08T04:28:06.309Z,11.77
2022-12-08T04:33:07.851Z,13.95
2022-12-08T04:38:09.443Z,10.20
2022-12-08T04:43:11.158Z,10.88
2022-12-08T04:48:13.397Z,13.43
2022-12-08T04:53:15.424Z,14.27
2022-12-08T04:58:19.329Z,13.57
2022-12-08T05:03:28.120Z,12.70
2022-12-08T05:08:30.707Z,10.98
2022-12-08T05:13:32.773Z,12.73
2022-12-08T05:18:34.968Z,11.55
2022-12-08T05:23:36.754Z,11.18
2022-12-08T05:28:42.942Z,10.88
2022-12-08T05:33:45.778Z,14.48
2022-12-08T05:38:47.653Z,13.52
2022-12-08T05:43:49.447Z,14.35
2022-12-08T05:48:51.061Z,13.07
2022-12-08T05:53:53.257Z,11.63
2022-12-08T05:58:54.842Z,16.05
2022-12-08T06:03:59.883Z,16.90
2022-12-08T06:09:04.078Z,14.30
2022-12-08T06:14:05.655Z,14.18
2022-12-08T06:19:07.334Z,14.48
2022-12-08T06:24:09.004Z,13.10
2022-12-08T06:29:10.996Z,14.05
2022-12-08T06:34:12.542Z,15.57
2022-12-08T06:39:14.088Z,16.75
2022-12-08T06:44:15.669Z,19.83
2022-12-08T06:49:17.730Z,17.67
2022-12-08T06:54:19.285Z,26.52
2022-12-08T06:59:20.890Z,25.08
2022-12-08T07:04:22.459Z,22.48
2022-12-08T07:09:24.028Z,22.02
2022-12-08T07:14:25.640Z,16.48
2022-12-08T07:19:27.205Z,19.55
2022-12-08T07:24:28.775Z,19.27
2022-12-08T07:29:30.318Z,16.50
2022-12-08T07:34:31.904Z,16.95
2022-12-08T07:39:33.458Z,14.68
2022-12-08T07:44:34.993Z,26.00
2022-12-08T07:49:36.558Z,19.10
2022-12-08T07:54:38.120Z,15.73
2022-12-08T07:59:39.723Z,15.45
2022-12-08T08:04:41.370Z,12.95
2022-12-08T08:09:43.097Z,16.33
2022-12-08T08:14:44.761Z,15.88
2022-12-08T08:19:46.608Z,12.05
2022-12-08T08:24:48.213Z,11.57
2022-12-08T08:29:50.120Z,13.27
2022-12-08T08:34:51.943Z,11.43
2022-12-08T08:39:53.728Z,12.40
2022-12-08T08:44:55.322Z,17.58
2022-12-08T08:49:56.856Z,14.80
2022-12-08T08:54:58.416Z,14.15
2022-12-08T08:59:59.987Z,13.05
2022-12-08T09:05:01.722Z,12.73
2022-12-08T09:10:04.206Z,13.82
2022-12-08T09:15:06.687Z,12.23
2022-12-08T09:20:08.585Z,11.85
2022-12-08T09:25:10.189Z,13.38
2022-12-08T09:30:11.852Z,10.73
2022-12-08T09:35:13.770Z,12.60
2022-12-08T09:40:18.781Z,12.98
2022-12-08T09:45:33.328Z,13.38
2022-12-08T09:50:52.594Z,11.90
2022-12-08T09:55:59.131Z,14.80
2022-12-08T10:01:00.921Z,15.13
2022-12-08T10:06:25.254Z,12.77
2022-12-08T10:11:40.877Z,14.52
2022-12-08T10:16:48.438Z,17.27
2022-12-08T10:21:51.208Z,15.10
2022-12-08T10:26:53.982Z,13.10
2022-12-08T10:31:59.710Z,11.00
2022-12-08T10:37:09.937Z,16.00
2022-12-08T10:42:14.473Z,11.10
2022-12-08T10:47:16.345Z,13.80
2022-12-08T10:52:24.978Z,12.75
2022-12-08T10:57:26.556Z,10.87
2022-12-08T11:02:28.258Z,8.73
2022-12-08T11:07:29.900Z,9.63
2022-12-08T11:12:32.262Z,11.82
2022-12-08T11:17:39.631Z,10.40
2022-12-08T11:22:43.501Z,10.80
2022-12-08T11:27:48.361Z,11.88
2022-12-08T11:33:17.891Z,11.82
2022-12-08T11:38:25.918Z,12.40
2022-12-08T11:43:40.857Z,12.80
2022-12-08T11:48:48.604Z,12.20
2022-12-08T11:54:08.658Z,12.63
2022-12-08T11:59:22.855Z,11.23
2022-12-08T12:04:36.103Z,13.70
2022-12-08T12:10:04.069Z,12.70
2022-12-08T12:15:12.743Z,18.88
2022-12-08T12:20:30.351Z,13.30
2022-12-08T12:25:34.344Z,11.10
2022-12-08T12:31:02.285Z,12.38
2022-12-08T12:36:07.945Z,23.17
2022-12-08T12:41:12.151Z,16.73
2022-12-08T12:46:25.738Z,14.90
2022-12-08T12:51:44.221Z,12.98
2022-12-08T12:56:55.137Z,10.93
2022-12-08T13:01:57.396Z,9.38
2022-12-08T13:06:59.758Z,10.73
2022-12-08T13:12:10.465Z,13.45
2022-12-08T13:17:16.289Z,12.50
2022-12-08T13:22:50.548Z,12.13
2022-12-08T13:27:53.993Z,10.40
2022-12-08T13:38:26.434Z,11.80
2022-12-08T13:44:14.252Z,10.43
2022-12-08T13:56:05.519Z,12.98
2022-12-08T14:00:15.410Z,13.25
2022-12-08T14:05:40.686Z,14.82
2022-12-08T14:10:41.925Z,14.32
2022-12-08T14:15:43.521Z,14.50
2022-12-08T14:21:12.595Z,15.15
2022-12-08T14:26:06.968Z,17.08
2022-12-08T14:31:08.811Z,17.67
2022-12-08T14:36:15.777Z,16.50
2022-12-08T14:41:27.090Z,24.30
2022-12-08T14:46:29.174Z,22.77
2022-12-08T14:51:33.136Z,21.48
2022-12-08T14:56:42.233Z,28.48
2022-12-08T15:01:44.704Z,32.85
2022-12-08T15:06:53.918Z,30.50
2022-12-08T15:12:26.777Z,37.20
2022-12-08T15:17:35.911Z,49.50
2022-12-08T15:22:37.449Z,44.35
2022-12-08T15:27:49.853Z,39.70
2022-12-08T15:32:54.294Z,37.20
2022-12-08T15:37:56.031Z,23.30
2022-12-08T15:42:57.678Z,26.65
2022-12-08T15:47:59.278Z,32.45
2022-12-08T15:53:01.456Z,35.22
2022-12-08T15:58:52.492Z,32.35
2022-12-08T16:09:06.370Z,27.52
2022-12-08T16:15:23.076Z,36.58
2022-12-08T16:19:35.198Z,35.97
2022-12-08T16:24:36.750Z,33.65
2022-12-08T16:29:38.607Z,33.15
2022-12-08T16:34:40.412Z,31.02
2022-12-08T16:39:45.772Z,44.28
2022-12-08T16:44:47.743Z,51.35
2022-12-08T16:49:49.306Z,40.55
2022-12-08T16:54:50.882Z,40.13
2022-12-08T16:59:52.443Z,42.13
2022-12-08T17:04:54.032Z,37.05
2022-12-08T17:09:55.676Z,36.78
2022-12-08T17:14:57.232Z,40.20
2022-12-08T17:19:58.832Z,39.75
2022-12-08T17:25:01.038Z,47.53
2022-12-08T17:30:03.106Z,41.60
2022-12-08T17:35:05.884Z,35.58
2022-12-08T17:40:08.532Z,29.98
2022-12-08T17:45:10.888Z,34.88
2022-12-08T17:50:12.441Z,33.78
2022-12-08T17:55:13.992Z,34.97
2022-12-08T18:00:15.892Z,33.22
2022-12-08T18:05:17.591Z,38.35
2022-12-08T18:10:19.931Z,33.70
2022-12-08T18:15:21.833Z,39.67
2022-12-08T18:20:23.572Z,31.27
2022-12-08T18:25:25.169Z,32.28
2022-12-08T18:30:27.024Z,32.20
2022-12-08T18:35:28.883Z,34.88
2022-12-08T18:40:30.448Z,40.75
2022-12-08T18:45:32.529Z,42.10
2022-12-08T18:50:34.424Z,69.75
2022-12-08T18:55:37.756Z,46.40
2022-12-08T19:00:39.296Z,43.78
2022-12-08T19:05:40.958Z,41.15
2022-12-08T19:10:42.556Z,38.72
2022-12-08T19:15:44.174Z,34.35
2022-12-08T19:20:45.847Z,38.97
2022-12-08T19:25:47.415Z,32.08
2022-12-08T19:30:49.132Z,33.65
2022-12-08T19:35:52.902Z,32.38
2022-12-08T19:41:13.181Z,29.60
2022-12-08T19:46:14.909Z,28.02
2022-12-08T19:51:16.643Z,27.38
2022-12-08T19:56:18.222Z,32.05
2022-12-08T20:01:19.884Z,23.80
2022-12-08T20:06:23.262Z,25.60
2022-12-08T20:11:24.831Z,24.55
2022-12-08T20:16:26.510Z,24.85
2022-12-08T20:21:29.105Z,27.25
2022-12-08T20:26:30.851Z,25.75
2022-12-08T20:31:33.602Z,34.40
2022-12-08T20:36:35.310Z,34.00
2022-12-08T20:41:39.279Z,31.58
2022-12-08T20:46:44.956Z,31.75
2022-12-08T20:51:49.917Z,28.90
2022-12-08T20:56:51.642Z,30.30
2022-12-08T21:01:54.156Z,30.23
2022-12-08T21:06:56.104Z,31.58
2022-12-08T21:11:57.775Z,32.05
2022-12-08T21:16:59.458Z,32.67
2022-12-08T21:22:01.240Z,30.90
2022-12-08T21:27:02.979Z,28.92
2022-12-08T21:32:04.801Z,26.63
2022-12-08T21:37:06.450Z,31.17
2022-12-08T21:42:32.317Z,28.95
2022-12-08T21:47:36.115Z,39.63
2022-12-08T21:52:39.433Z,31.45
2022-12-08T21:57:41.350Z,37.75
2022-12-08T22:02:43.677Z,41.42
2022-12-08T22:07:45.658Z,38.22
2022-12-08T22:12:47.303Z,36.90
2022-12-08T22:17:48.994Z,35.40
2022-12-08T22:22:50.749Z,38.38
2022-12-08T22:27:52.441Z,32.58
2022-12-08T22:32:54.224Z,32.33
2022-12-08T22:37:55.911Z,32.13
2022-12-08T22:42:57.737Z,34.60
2022-12-08T22:47:59.796Z,35.30
2022-12-08T22:53:01.476Z,35.10
2022-12-08T22:58:03.038Z,33.42
2022-12-08T23:03:05.963Z,33.88
2022-12-08T23:08:08.627Z,31.48
2022-12-08T23:13:11.258Z,38.00
2022-12-08T23:18:19.254Z,30.08
2022-12-08T23:23:21.698Z,32.87
2022-12-08T23:34:39.656Z,29.92
2022-12-08T23:39:41.657Z,30.25
2022-12-08T23:44:43.398Z,27.83
2022-12-08T23:49:45.245Z,30.15
2022-12-08T23:54:50.295Z,28.52
2022-12-08T23:59:51.888Z,30.75
